Time;durP1;ratioP1;P1;durP2;ratioP2;P2;SDS_P1;SDS_P2;PMS_P1;PMS_P2;Temp;Humidity;BMP_temperature;BMP_pressure;BME280_temperature;BME280_humidity;BME280_pressure;Samples;Min_cycle;Max_cycle;Signal;HPM_P1;HPM_P2
2021/12/15 00:02:26;;;;;;;12.32;5.93;;;;;;;16.76;49.28;102726.28;4903980;29;20482;-60
2021/12/15 00:04:52;;;;;;;17.85;6.88;;;;;;;16.83;50.31;102737.50;4936742;29;20071;-60
2021/12/15 00:07:20;;;;;;;13.60;6.00;;;;;;;16.83;50.08;102732.09;4936897;29;20032;-60
2021/12/15 00:09:45;;;;;;;14.00;5.95;;;;;;;16.81;50.39;102734.91;4937059;29;20031;-60
2021/12/15 00:12:13;;;;;;;8.55;5.47;;;;;;;16.81;50.42;102726.78;4936918;29;20034;-60
2021/12/15 00:14:40;;;;;;;10.82;5.72;;;;;;;16.85;50.25;102738.22;4936993;29;20032;-60
2021/12/15 00:17:05;;;;;;;13.02;6.25;;;;;;;16.83;50.80;102732.94;4937017;29;20485;-60
2021/12/15 00:19:31;;;;;;;11.93;6.03;;;;;;;16.81;49.27;102729.50;4919983;29;20087;-60
2021/12/15 00:21:57;;;;;;;13.32;5.97;;;;;;;16.81;49.58;102734.03;4936089;29;20104;-60
2021/12/15 00:24:24;;;;;;;10.45;5.93;;;;;;;16.78;49.78;102735.16;4919703;29;20469;-59
2021/12/15 00:26:50;;;;;;;12.52;6.05;;;;;;;16.78;50.10;102740.56;4936599;29;20019;-60
2021/12/15 00:29:15;;;;;;;10.02;5.85;;;;;;;16.78;51.06;102732.44;4936262;29;20093;-60
2021/12/15 00:31:42;;;;;;;11.93;6.10;;;;;;;16.79;50.14;102736.00;4937924;29;20032;-60
2021/12/15 00:34:08;;;;;;;12.57;6.03;;;;;;;16.78;50.84;102737.84;4940113;29;20428;-60
2021/12/15 00:36:34;;;;;;;14.40;6.72;;;;;;;16.66;49.83;102722.63;4940346;29;20170;-60
2021/12/15 00:39:00;;;;;;;12.13;6.40;;;;;;;16.69;49.93;102735.91;4940008;29;20055;-60
2021/12/15 00:41:25;;;;;;;12.05;5.85;;;;;;;16.68;50.89;102734.16;4906970;29;20097;-60
2021/12/15 00:43:50;;;;;;;15.23;7.25;;;;;;;16.71;50.93;102744.75;4939837;29;20020;-60
2021/12/15 00:46:17;;;;;;;12.88;6.57;;;;;;;16.66;51.19;102741.56;4922715;29;20038;-59
2021/12/15 00:48:42;;;;;;;16.52;6.53;;;;;;;16.61;51.53;102738.31;4922934;29;20115;-60
2021/12/15 00:51:08;;;;;;;14.57;6.20;;;;;;;16.64;50.46;102735.38;4923173;29;20143;-60
2021/12/15 00:53:33;;;;;;;14.02;6.43;;;;;;;16.67;50.40;102735.13;4939851;29;20043;-60
2021/12/15 00:55:59;;;;;;;15.50;7.13;;;;;;;16.63;51.27;102730.97;4939660;29;20091;-60
2021/12/15 00:58:24;;;;;;;12.82;6.20;;;;;;;16.64;50.88;102734.50;4939643;29;20031;-61
2021/12/15 01:00:55;;;;;;;11.73;6.47;;;;;;;16.62;51.66;102731.94;4939376;29;20060;-60
2021/12/15 01:03:22;;;;;;;12.30;5.97;;;;;;;16.59;50.77;102740.31;4939535;29;20074;-60
2021/12/15 01:05:52;;;;;;;10.80;6.80;;;;;;;16.53;50.49;102729.06;4939641;29;20024;-60
2021/12/15 01:08:21;;;;;;;12.93;6.30;;;;;;;16.56;51.29;102737.84;4921985;29;20074;-60
2021/12/15 01:11:16;;;;;;;15.20;6.63;;;;;;;16.56;51.39;102740.53;4921968;29;20370;-60
2021/12/15 01:22:42;;;;;;;;;;;;;;;16.51;50.55;102742.72;4880812;29;20060;-60
2021/12/15 01:25:19;;;;;;;16.92;5.97;;;;;;;16.50;50.68;102741.00;4880135;29;19994;-60
2021/12/15 01:27:45;;;;;;;12.68;6.25;;;;;;;16.49;51.49;102743.81;4880676;29;20033;-60
2021/12/15 01:30:13;;;;;;;11.70;5.75;;;;;;;16.49;50.10;102746.53;4880611;29;20032;-60
2021/12/15 01:32:38;;;;;;;15.93;6.20;;;;;;;16.47;51.51;102746.63;4880509;29;20029;-60
2021/12/15 01:35:04;;;;;;;13.77;6.00;;;;;;;16.48;51.58;102748.38;4880484;29;20487;-60
2021/12/15 01:37:30;;;;;;;15.00;6.78;;;;;;;16.48;51.93;102748.38;4880278;29;20108;-60
2021/12/15 01:39:56;;;;;;;13.40;6.50;;;;;;;16.38;50.80;102736.56;4880490;29;20060;-60
2021/12/15 01:42:25;;;;;;;11.73;5.88;;;;;;;16.50;50.73;102750.97;4864675;29;20040;-60
2021/12/15 01:47:35;;;;;;;13.05;6.68;;;;;;;16.46;51.71;102758.47;4867326;29;20100;-60
2021/12/15 01:50:02;;;;;;;14.75;7.22;;;;;;;16.44;51.29;102752.31;4880314;29;20522;-60
2021/12/15 01:52:31;;;;;;;11.70;6.63;;;;;;;16.43;51.15;102750.59;4888873;29;20055;-60
2021/12/15 01:55:06;;;;;;;13.13;7.28;;;;;;;16.39;51.85;102749.09;4919870;29;20040;-60
2021/12/15 01:57:34;;;;;;;12.45;6.35;;;;;;;16.41;51.01;102759.81;4919890;29;20071;-60
2021/12/15 02:00:01;;;;;;;13.45;6.55;;;;;;;16.38;51.69;102750.09;4919798;29;20028;-60
2021/12/15 02:02:26;;;;;;;10.45;5.53;;;;;;;16.33;51.77;102753.13;4919293;29;20043;-60
2021/12/15 02:04:53;;;;;;;14.02;6.15;;;;;;;16.37;52.09;102750.19;4919460;29;20036;-60
2021/12/15 02:07:20;;;;;;;15.13;6.10;;;;;;;16.37;52.05;102755.59;4919522;29;20393;-60
2021/12/15 02:12:23;;;;;;;12.05;6.03;;;;;;;16.33;50.87;102755.00;4919666;29;20035;-60
2021/12/15 02:14:49;;;;;;;15.55;7.20;;;;;;;16.33;51.67;102754.13;4902875;29;20032;-60
2021/12/15 02:17:15;;;;;;;15.85;6.18;;;;;;;16.31;52.31;102751.53;4918399;29;20028;-60
2021/12/15 02:19:41;;;;;;;12.30;5.88;;;;;;;16.33;52.59;102749.59;4919454;29;20043;-60
2021/12/15 02:22:07;;;;;;;15.65;5.78;;;;;;;16.30;51.29;102747.13;4918129;29;20055;-59
2021/12/15 02:24:35;;;;;;;13.77;6.43;;;;;;;16.34;51.00;102754.00;4918622;29;20024;-60
2021/12/15 02:27:01;;;;;;;12.23;6.30;;;;;;;16.32;52.25;102753.25;4919167;29;20046;-60
2021/12/15 02:29:32;;;;;;;14.77;6.18;;;;;;;16.30;52.35;102749.81;4919462;29;20027;-60
2021/12/15 02:32:08;;;;;;;13.30;5.55;;;;;;;16.25;52.28;102747.47;4918331;29;20032;-60
2021/12/15 02:37:20;;;;;;;12.82;5.63;;;;;;;16.24;52.46;102750.28;4918030;29;20048;-60
2021/12/15 02:39:47;;;;;;;9.35;6.80;;;;;;;16.22;51.78;102752.22;4919145;29;20039;-60
2021/12/15 02:42:12;;;;;;;10.50;5.68;;;;;;;16.25;52.90;102768.22;4919150;29;20106;-60
2021/12/15 02:44:43;;;;;;;11.10;5.72;;;;;;;16.26;51.56;102762.72;4918138;29;20048;-60
2021/12/15 02:47:09;;;;;;;10.27;5.20;;;;;;;16.28;52.63;102758.03;4918621;29;20035;-60
2021/12/15 02:49:35;;;;;;;13.45;5.70;;;;;;;16.31;51.38;102756.94;4919111;29;20027;-59
2021/12/15 02:52:00;;;;;;;11.13;5.35;;;;;;;16.33;52.47;102760.41;4919069;29;20024;-60
2021/12/15 02:54:26;;;;;;;12.32;5.97;;;;;;;16.35;51.51;102762.97;4918196;29;20040;-60
2021/12/15 02:56:53;;;;;;;18.83;7.00;;;;;;;16.34;51.17;102751.28;4918765;29;20397;-60
2021/12/15 02:59:31;;;;;;;13.82;6.03;;;;;;;16.35;51.21;102755.72;4917645;29;20024;-60
2021/12/15 03:02:09;;;;;;;9.73;5.30;;;;;;;16.33;51.36;102754.13;4919006;29;20047;-60
2021/12/15 03:17:41;;;;;;;11.60;5.85;;;;;;;16.30;52.77;102757.94;4918611;29;20062;-60
2021/12/15 03:20:09;;;;;;;12.10;6.38;;;;;;;16.27;52.63;102756.31;4918604;29;20545;-60
2021/12/15 03:22:35;;;;;;;11.32;6.05;;;;;;;16.28;52.56;102747.22;4920526;29;20040;-60
2021/12/15 03:25:01;;;;;;;10.75;4.90;;;;;;;16.29;51.41;102753.50;4937317;29;20027;-60
2021/12/15 03:33:16;;;;;;;11.32;5.40;;;;;;;16.28;52.24;102751.75;4920627;29;20059;-60
2021/12/15 03:33:32;;;;;;;11.05;6.30;;;;;;;16.28;51.94;102749.94;4937486;29;20409;-60
2021/12/15 03:36:11;;;;;;;13.98;6.07;;;;;;;16.28;51.20;102758.03;4937343;29;20552;-59
2021/12/15 03:38:37;;;;;;;13.82;6.20;;;;;;;16.30;52.61;102752.53;4937534;29;20042;-60
2021/12/15 03:41:07;;;;;;;11.55;5.47;;;;;;;16.26;52.33;102743.78;4937283;29;20043;-60
2021/12/15 03:43:34;;;;;;;14.68;5.78;;;;;;;16.26;52.33;102748.31;4937372;29;20034;-59
2021/12/15 03:46:04;;;;;;;10.55;5.47;;;;;;;16.29;52.44;102758.91;4937536;29;20031;-60
2021/12/15 03:48:32;;;;;;;9.60;5.15;;;;;;;16.30;52.02;102755.22;4937220;29;20038;-60
2021/12/15 03:50:58;;;;;;;8.93;5.30;;;;;;;16.27;51.74;102755.47;4937007;29;20031;-60
2021/12/15 03:53:25;;;;;;;9.32;5.45;;;;;;;16.27;52.34;102752.75;4937257;29;20046;-59
2021/12/15 03:55:52;;;;;;;8.15;5.45;;;;;;;16.27;52.38;102755.47;4920232;29;20457;-60
2021/12/15 03:58:23;;;;;;;10.50;5.43;;;;;;;16.28;51.85;102757.16;4920483;29;20028;-60
2021/12/15 04:00:59;;;;;;;13.30;5.97;;;;;;;16.31;52.71;102762.34;4937456;29;20026;-60
2021/12/15 04:03:31;;;;;;;13.20;6.78;;;;;;;16.32;52.83;102761.38;4904341;29;20026;-60
2021/12/15 04:05:59;;;;;;;11.63;6.10;;;;;;;16.34;51.78;102767.53;4938715;29;20548;-59
2021/12/15 04:08:26;;;;;;;9.80;5.30;;;;;;;16.36;52.98;102764.72;4923901;29;20040;-60
2021/12/15 04:10:52;;;;;;;13.07;5.82;;;;;;;16.37;52.31;102767.28;4907912;29;20552;-60
2021/12/15 04:13:17;;;;;;;14.23;6.75;;;;;;;16.36;52.22;102770.97;4940459;29;20035;-60
2021/12/15 04:15:47;;;;;;;14.07;6.45;;;;;;;16.37;51.40;102772.69;4940869;29;20048;-60
2021/12/15 04:18:14;;;;;;;16.58;6.70;;;;;;;16.35;51.82;102763.84;4923923;29;20027;-60
2021/12/15 04:20:41;;;;;;;12.48;6.65;;;;;;;16.36;52.44;102760.13;4940341;29;20070;-59
2021/12/15 04:23:08;;;;;;;15.55;6.50;;;;;;;16.38;51.35;102769.03;4940727;29;20024;-60
2021/12/15 04:25:36;;;;;;;13.52;7.43;;;;;;;16.41;52.39;102771.50;4940587;29;20028;-60
2021/12/15 04:28:08;;;;;;;11.77;6.15;;;;;;;16.42;52.30;102769.63;4923368;29;20039;-59
2021/12/15 04:30:38;;;;;;;13.80;6.47;;;;;;;16.40;51.84;102767.06;4940549;29;20070;-60
2021/12/15 04:33:13;;;;;;;11.73;5.97;;;;;;;16.42;52.59;102775.91;4940670;29;20466;-60
2021/12/15 04:35:39;;;;;;;15.88;6.57;;;;;;;16.43;52.38;102765.94;4940510;29;20023;-60
2021/12/15 04:38:05;;;;;;;9.80;5.50;;;;;;;16.43;51.34;102774.94;4923304;29;20035;-60
2021/12/15 04:40:31;;;;;;;11.68;6.03;;;;;;;16.43;52.54;102776.75;4940455;29;20098;-60
2021/12/15 04:42:58;;;;;;;11.23;5.95;;;;;;;16.43;51.35;102777.63;4923242;29;20087;-60
2021/12/15 04:45:24;;;;;;;15.45;6.30;;;;;;;16.43;52.10;102777.63;4923344;29;20404;-60
2021/12/15 04:47:51;;;;;;;11.15;5.93;;;;;;;16.42;52.62;102781.31;4940436;29;20036;-59
2021/12/15 04:50:19;;;;;;;12.25;5.85;;;;;;;16.41;52.75;102779.59;4940424;29;20090;-59
2021/12/15 04:52:44;;;;;;;11.00;5.95;;;;;;;16.42;53.12;102786.72;4940030;29;20028;-60
2021/12/15 04:55:10;;;;;;;13.00;6.00;;;;;;;16.43;52.59;102799.28;4907419;29;20039;-60
2021/12/15 04:57:36;;;;;;;13.07;5.85;;;;;;;16.44;51.95;102801.00;4940429;29;20071;-60
2021/12/15 05:00:05;;;;;;;9.43;5.82;;;;;;;16.44;52.45;102805.56;4939954;29;20165;-60
2021/12/15 05:02:31;;;;;;;14.27;5.90;;;;;;;16.44;52.67;102800.16;4923438;29;20455;-60
2021/12/15 05:04:57;;;;;;;14.13;6.05;;;;;;;16.45;52.56;102801.84;4939537;29;20034;-60
2021/12/15 05:07:22;;;;;;;11.02;5.68;;;;;;;16.45;52.65;102799.13;4939467;29;20024;-60
2021/12/15 05:09:50;;;;;;;10.80;5.72;;;;;;;16.43;52.62;102793.00;4939722;29;20035;-60
2021/12/15 05:12:19;;;;;;;13.02;6.53;;;;;;;16.39;52.41;102797.78;4939996;29;20497;-59
2021/12/15 05:14:45;;;;;;;11.32;5.47;;;;;;;16.33;52.63;102790.16;4922906;29;20103;-60
2021/12/15 05:17:10;;;;;;;11.05;5.75;;;;;;;16.35;53.02;102801.72;4938703;29;20106;-60
2021/12/15 05:19:36;;;;;;;12.43;6.43;;;;;;;16.35;52.09;102801.72;4922564;29;20114;-60
2021/12/15 05:22:04;;;;;;;9.07;5.45;;;;;;;16.34;52.28;102799.97;4939154;29;20052;-60
2021/12/15 05:27:15;;;;;;;12.98;5.85;;;;;;;16.33;53.26;102798.28;4939644;29;20028;-60
2021/12/15 05:29:44;;;;;;;11.75;5.45;;;;;;;16.31;52.19;102805.63;4922377;29;20079;-60
2021/12/15 05:32:10;;;;;;;11.65;6.18;;;;;;;16.30;52.17;102803.91;4922395;29;20020;-59
2021/12/15 05:34:37;;;;;;;8.40;4.45;;;;;;;16.28;52.36;102800.44;4922510;29;20099;-60
2021/12/15 05:37:04;;;;;;;11.50;4.40;;;;;;;16.30;52.92;102803.91;4922539;29;20497;-60
2021/12/15 05:39:30;;;;;;;12.20;5.53;;;;;;;16.29;53.05;102810.28;4939059;29;20039;-60
2021/12/15 05:41:55;;;;;;;12.02;5.35;;;;;;;16.30;52.31;102804.75;4922309;29;20034;-60
2021/12/15 05:44:22;;;;;;;9.73;4.90;;;;;;;16.32;52.09;102807.34;4906289;29;20103;-60
2021/12/15 05:46:47;;;;;;;11.05;5.40;;;;;;;16.31;52.31;102808.31;4939485;29;20114;-60
2021/12/15 05:49:13;;;;;;;11.93;5.05;;;;;;;16.31;52.53;102806.47;4921689;29;20456;-60
2021/12/15 05:51:39;;;;;;;9.00;5.47;;;;;;;16.33;51.66;102813.63;4939073;29;20058;-60
2021/12/15 05:54:05;;;;;;;9.35;5.22;;;;;;;16.32;53.15;102818.16;4939175;29;20042;-60
2021/12/15 05:56:31;;;;;;;10.98;5.13;;;;;;;16.33;52.11;102819.03;4939283;29;20031;-60
2021/12/15 05:58:56;;;;;;;11.38;5.13;;;;;;;16.33;52.11;102817.22;4938908;29;20111;-60
2021/12/15 06:01:22;;;;;;;10.60;5.18;;;;;;;16.32;52.25;102820.88;4921454;29;20031;-60
2021/12/15 06:03:47;;;;;;;14.50;5.88;;;;;;;16.27;53.41;102814.97;4938761;29;20035;-60
2021/12/15 06:06:13;;;;;;;8.70;4.72;;;;;;;16.30;52.82;102826.38;4938777;29;20031;-60
2021/12/15 06:08:38;;;;;;;10.55;4.72;;;;;;;16.29;52.63;102813.00;4938613;29;20028;-60
2021/12/15 06:11:04;;;;;;;12.05;5.43;;;;;;;16.31;52.76;102832.66;4921456;29;20083;-60
2021/12/15 06:13:30;;;;;;;10.23;5.05;;;;;;;16.33;52.28;102825.31;4938547;29;20027;-60
2021/12/15 06:15:57;;;;;;;12.75;5.50;;;;;;;16.34;52.76;102821.63;4938039;29;20038;-60
2021/12/15 06:18:23;;;;;;;10.13;5.30;;;;;;;16.33;52.50;102819.91;4938638;29;20027;-60
2021/12/15 06:20:51;;;;;;;10.98;5.70;;;;;;;16.33;52.58;102820.75;4917883;29;20060;-60
2021/12/15 06:23:19;;;;;;;11.48;5.35;;;;;;;16.35;51.92;102828.75;4919095;29;20488;-60
2021/12/15 06:25:48;;;;;;;13.48;5.45;;;;;;;16.35;53.33;102819.78;4911352;29;20470;-60
2021/12/15 06:28:15;;;;;;;11.63;6.25;;;;;;;16.24;53.13;102815.19;4918816;29;20028;-60
2021/12/15 06:30:40;;;;;;;9.30;5.30;;;;;;;16.28;52.38;102819.38;4917936;29;20020;-60
2021/12/15 06:33:07;;;;;;;13.10;5.05;;;;;;;16.24;53.27;102826.00;4919044;29;20477;-60
2021/12/15 06:35:33;;;;;;;12.77;5.57;;;;;;;16.18;53.08;102823.78;4919177;29;20177;-60
2021/12/15 06:37:59;;;;;;;15.38;5.97;;;;;;;16.11;53.39;102817.97;4919108;29;20047;-60
2021/12/15 06:40:24;;;;;;;8.43;4.85;;;;;;;16.06;52.40;102813.88;4919294;29;20088;-60
2021/12/15 06:42:50;;;;;;;9.00;5.78;;;;;;;16.04;53.98;102826.66;4919001;29;20397;-60
2021/12/15 06:45:18;;;;;;;10.85;5.40;;;;;;;16.04;52.67;102826.66;4918018;29;20028;-60
2021/12/15 06:58:42;;;;;;;9.27;5.28;;;;;;;16.07;52.60;102837.25;4918843;29;20074;-60
2021/12/15 07:01:07;;;;;;;11.80;5.45;;;;;;;16.06;52.96;102843.63;4919019;29;20083;-59
2021/12/15 07:03:33;;;;;;;11.60;5.80;;;;;;;16.07;52.89;102834.53;4917781;29;20039;-59
2021/12/15 07:05:58;;;;;;;8.20;4.75;;;;;;;16.08;52.82;102837.09;4918527;29;20107;-59
2021/12/15 07:08:27;;;;;;;10.57;5.65;;;;;;;16.04;53.06;102832.06;4918502;29;20035;-59
2021/12/15 07:10:53;;;;;;;10.07;5.13;;;;;;;16.05;53.94;102845.44;4917722;29;20028;-59
2021/12/15 07:13:19;;;;;;;13.02;5.97;;;;;;;16.08;54.03;102852.50;4918401;29;20084;-59
2021/12/15 07:15:46;;;;;;;10.77;5.55;;;;;;;16.11;52.45;102860.34;4918744;29;20485;-60
2021/12/15 07:18:15;;;;;;;14.32;6.07;;;;;;;16.15;53.55;102860.03;4918647;29;20028;-59
2021/12/15 07:20:49;;;;;;;12.35;5.18;;;;;;;16.16;53.09;102861.72;4921077;29;20091;-59
2021/12/15 07:23:19;;;;;;;11.00;4.72;;;;;;;16.23;52.70;102862.13;4937661;29;20024;-59
2021/12/15 07:25:47;;;;;;;10.60;5.20;;;;;;;16.26;52.52;102861.91;4920376;29;20028;-59
2021/12/15 07:28:14;;;;;;;10.50;4.85;;;;;;;16.28;52.35;102865.34;4904319;29;20030;-59
2021/12/15 07:30:40;;;;;;;9.27;5.13;;;;;;;16.31;53.39;102865.13;4936763;29;20166;-59
2021/12/15 07:33:08;;;;;;;8.38;4.97;;;;;;;16.31;53.15;102867.81;4937305;29;20032;-59
2021/12/15 07:35:34;;;;;;;9.68;4.97;;;;;;;16.31;52.75;102866.00;4920258;29;20024;-60
2021/12/15 07:37:59;;;;;;;11.35;5.50;;;;;;;16.33;53.28;102870.44;4920555;29;20023;-59
2021/12/15 07:40:25;;;;;;;10.50;4.72;;;;;;;16.34;52.35;102864.88;4939867;29;20630;-59
2021/12/15 07:43:06;;;;;;;9.57;5.20;;;;;;;16.36;53.20;102873.75;4943942;29;20481;-59
2021/12/15 07:45:42;;;;;;;9.77;5.65;;;;;;;16.34;53.24;102870.31;4943987;29;20020;-59
2021/12/15 07:48:09;;;;;;;8.93;4.65;;;;;;;16.36;51.88;102873.75;4943928;29;20051;-60
2021/12/15 07:50:36;;;;;;;10.50;4.65;;;;;;;16.39;53.36;102884.34;4926614;29;20028;-59
2021/12/15 07:53:01;;;;;;;12.55;5.30;;;;;;;16.35;52.59;102877.44;4943326;29;20436;-59
2021/12/15 07:55:29;;;;;;;8.73;4.97;;;;;;;16.39;52.89;102884.34;4943531;29;20110;-59
2021/12/15 07:57:54;;;;;;;8.60;4.70;;;;;;;16.40;53.20;102880.66;4943337;29;20074;-59
2021/12/15 08:00:21;;;;;;;11.73;5.50;;;;;;;16.42;52.94;102889.50;4927115;29;20024;-59
2021/12/15 08:02:46;;;;;;;9.45;4.95;;;;;;;16.39;53.15;102888.91;4926336;29;20063;-60
2021/12/15 08:05:13;;;;;;;10.73;4.85;;;;;;;16.35;52.70;102880.16;4943809;29;20027;-59
2021/12/15 08:07:38;;;;;;;11.05;5.13;;;;;;;16.39;52.54;102878.09;4943533;29;20444;-59
2021/12/15 08:10:08;;;;;;;8.48;5.15;;;;;;;16.37;52.33;102886.31;4926265;29;20063;-60
2021/12/15 08:12:33;;;;;;;8.15;4.47;;;;;;;16.33;52.78;102885.66;4943172;29;20032;-60
2021/12/15 08:14:59;;;;;;;8.98;5.53;;;;;;;16.35;53.75;102876.56;4942890;29;20392;-59
2021/12/15 08:17:24;;;;;;;8.05;4.88;;;;;;;16.36;52.17;102884.56;4941952;29;20477;-59
2021/12/15 08:19:50;;;;;;;13.18;5.35;;;;;;;16.39;52.02;102872.69;4926415;29;20055;-59
2021/12/15 08:22:16;;;;;;;10.85;4.85;;;;;;;16.41;53.75;102882.41;4942978;29;20424;-59
2021/12/15 08:24:41;;;;;;;8.77;5.03;;;;;;;16.42;53.47;102885.94;4926643;29;20421;-59
2021/12/15 08:27:06;;;;;;;10.93;4.53;;;;;;;16.39;52.54;102884.34;4925920;29;20032;-59
2021/12/15 08:29:32;;;;;;;9.13;4.82;;;;;;;16.39;52.15;102884.34;4942918;29;20093;-59
2021/12/15 08:31:57;;;;;;;10.75;4.70;;;;;;;16.39;52.50;102883.50;4942836;29;20032;-59
2021/12/15 08:34:23;;;;;;;13.05;4.63;;;;;;;16.43;53.33;102891.25;4926256;29;20087;-59
2021/12/15 08:36:50;;;;;;;9.55;4.57;;;;;;;16.42;53.20;102897.63;4943039;29;20042;-59
2021/12/15 08:39:16;;;;;;;7.70;4.55;;;;;;;16.41;52.63;102898.63;4943134;29;20031;-59
2021/12/15 08:41:41;;;;;;;9.20;4.63;;;;;;;16.45;52.58;102915.47;4943280;29;20054;-59
2021/12/15 08:44:08;;;;;;;10.82;4.80;;;;;;;16.48;53.18;102905.28;4943084;29;20036;-59
2021/12/15 08:46:39;;;;;;;6.90;4.03;;;;;;;16.49;53.25;102901.59;4943052;29;20028;-59
2021/12/15 08:49:06;;;;;;;10.77;5.00;;;;;;;16.52;52.37;102901.38;4943862;29;20387;-59
2021/12/15 08:51:32;;;;;;;8.48;3.95;;;;;;;16.52;52.20;102903.22;4924245;29;20047;-60
2021/12/15 08:54:00;;;;;;;7.32;4.55;;;;;;;16.55;53.29;102903.88;4939724;29;20114;-59
2021/12/15 08:56:26;;;;;;;7.55;4.25;;;;;;;16.55;52.87;102895.78;4939822;29;20031;-59
2021/12/15 08:58:53;;;;;;;6.93;4.05;;;;;;;16.51;53.12;102893.38;4939834;29;20038;-59
2021/12/15 09:01:18;;;;;;;8.20;4.15;;;;;;;16.58;53.22;102895.50;4940182;29;20396;-60
2021/12/15 09:03:44;;;;;;;8.90;4.53;;;;;;;16.57;53.58;102901.91;4939891;29;20031;-59
2021/12/15 09:06:10;;;;;;;7.47;4.05;;;;;;;16.58;53.30;102898.22;4938668;29;20028;-60
2021/12/15 09:08:35;;;;;;;8.85;5.07;;;;;;;16.58;52.49;102898.22;4939715;29;20031;-59
2021/12/15 09:11:05;;;;;;;7.90;4.47;;;;;;;16.55;53.18;102890.34;4939531;29;20118;-59
2021/12/15 09:13:32;;;;;;;8.93;4.85;;;;;;;16.61;53.09;102906.09;4939586;29;20396;-59
2021/12/15 09:16:04;;;;;;;8.68;4.78;;;;;;;16.61;53.43;102903.38;4923016;29;20429;-59
2021/12/15 09:18:30;;;;;;;8.27;5.45;;;;;;;16.60;52.06;102904.41;4939617;29;20031;-60
2021/12/15 09:20:55;;;;;;;10.35;4.72;;;;;;;16.62;52.04;102913.25;4939442;29;20060;-60
2021/12/15 09:23:21;;;;;;;8.75;5.15;;;;;;;16.62;52.54;102907.84;4939826;29;20544;-59
2021/12/15 09:25:47;;;;;;;7.00;4.47;;;;;;;16.62;53.45;102910.53;4906811;29;20083;-59
2021/12/15 09:28:12;;;;;;;8.98;4.47;;;;;;;16.62;52.91;102909.66;4939579;29;20026;-59
2021/12/15 09:30:44;;;;;;;7.30;3.80;;;;;;;16.65;52.57;102915.72;4939475;29;20027;-59
2021/12/15 09:33:29;;;;;;;10.13;4.95;;;;;;;16.65;52.91;102913.00;4939619;29;20027;-59
2021/12/15 09:35:56;;;;;;;13.25;4.35;;;;;;;16.68;53.44;102911.91;4922770;29;20034;-60
2021/12/15 09:38:22;;;;;;;7.57;4.65;;;;;;;16.70;53.31;102921.63;4922432;29;20557;-59
2021/12/15 09:40:51;;;;;;;11.20;4.95;;;;;;;16.72;52.38;102925.06;4922061;29;20023;-60
2021/12/15 09:43:17;;;;;;;7.88;4.10;;;;;;;16.72;52.49;102914.25;4906105;29;20038;-59
2021/12/15 09:57:01;;;;;;;12.65;5.13;;;;;;;16.72;52.24;102930.50;4924282;29;20417;-59
2021/12/15 10:04:41;;;;;;;7.95;4.60;;;;;;;16.74;52.10;102927.69;4938392;29;20131;-59
2021/12/15 10:18:05;;;;;;;9.70;4.53;;;;;;;16.82;53.16;102942.38;4938343;29;20038;-59
2021/12/15 10:20:37;;;;;;;11.23;4.55;;;;;;;16.84;51.79;102937.69;4921020;29;20035;-59
2021/12/15 10:23:04;;;;;;;9.40;4.88;;;;;;;16.84;52.89;102937.69;4938446;29;20035;-59
2021/12/15 10:25:37;;;;;;;9.32;4.75;;;;;;;16.89;52.54;102940.03;4905838;29;20031;-59
2021/12/15 10:28:24;;;;;;;9.48;4.55;;;;;;;16.94;52.89;102947.81;4921814;29;20102;-59
2021/12/15 10:30:53;;;;;;;8.50;4.88;;;;;;;16.94;53.01;102940.56;4938174;29;20028;-59
2021/12/15 10:33:33;;;;;;;9.50;4.03;;;;;;;16.97;52.85;102940.31;4938340;29;20042;-60
2021/12/15 10:36:05;;;;;;;9.38;5.13;;;;;;;16.97;52.59;102944.88;4938321;29;20393;-59
2021/12/15 10:38:31;;;;;;;9.25;4.32;;;;;;;16.98;52.69;102935.75;4938218;29;20027;-59
2021/12/15 10:41:12;;;;;;;11.40;5.03;;;;;;;16.98;53.18;102936.63;4938056;29;20028;-59
2021/12/15 10:43:40;;;;;;;11.68;4.93;;;;;;;16.98;53.24;102947.44;4937947;29;20024;-59
2021/12/15 10:46:20;;;;;;;9.68;5.28;;;;;;;16.98;51.87;102939.31;4938032;29;20167;-60
2021/12/15 10:48:56;;;;;;;12.68;5.15;;;;;;;17.01;52.27;102946.34;4938053;29;20099;-59
2021/12/15 10:51:45;;;;;;;9.30;5.55;;;;;;;17.06;52.13;102955.84;4921196;29;20027;-59
2021/12/15 10:54:19;;;;;;;11.25;5.30;;;;;;;17.06;52.74;102949.53;4920933;29;20476;-59
2021/12/15 10:56:54;;;;;;;9.70;5.07;;;;;;;17.10;52.02;102946.50;4937886;29;20028;-59
2021/12/15 10:59:21;;;;;;;8.45;4.75;;;;;;;17.11;52.78;102947.38;4938040;29;20059;-59
2021/12/15 11:01:48;;;;;;;8.55;4.18;;;;;;;17.13;52.72;102945.41;4937869;29;20055;-59
2021/12/15 11:04:33;;;;;;;9.32;4.72;;;;;;;17.14;52.83;102947.13;4938081;29;20083;-59
2021/12/15 11:07:05;;;;;;;7.63;4.43;;;;;;;17.16;51.97;102945.16;4937933;29;20028;-59
2021/12/15 11:09:37;;;;;;;9.60;5.10;;;;;;;17.15;52.19;102941.56;4937817;29;20051;-60
2021/12/15 11:12:03;;;;;;;;;;;;;;;17.19;52.89;102950.34;4938144;29;20039;-59
2021/12/15 11:14:34;;;;;;;12.32;5.10;;;;;;;17.19;52.47;102945.78;4936980;29;19915;-60
2021/12/15 11:17:12;;;;;;;8.25;5.35;;;;;;;17.18;52.02;102937.75;4937217;29;20036;-59
2021/12/15 11:19:45;;;;;;;9.75;5.30;;;;;;;17.20;51.84;102935.78;4937426;29;20035;-60
2021/12/15 11:22:37;;;;;;;11.77;5.07;;;;;;;17.20;51.55;102943.91;4937111;29;20052;-59
2021/12/15 11:25:07;;;;;;;10.10;5.32;;;;;;;17.18;52.07;102940.47;4937521;29;20027;-59
2021/12/15 11:27:32;;;;;;;9.07;6.00;;;;;;;17.18;51.65;102941.34;4937393;29;20057;-60
2021/12/15 11:29:57;;;;;;;10.18;5.28;;;;;;;17.20;52.31;102933.09;4937471;29;20102;-60
2021/12/15 11:32:45;;;;;;;12.70;5.20;;;;;;;17.20;52.54;102931.25;4937373;29;20043;-60
2021/12/15 11:35:15;;;;;;;11.73;5.10;;;;;;;17.22;52.18;102928.44;4936992;29;20024;-59
2021/12/15 11:37:52;;;;;;;12.77;4.95;;;;;;;17.24;52.87;102926.44;4937303;29;20023;-59
2021/12/15 11:40:25;;;;;;;10.48;5.90;;;;;;;17.23;52.04;102919.31;4937492;29;20062;-59
2021/12/15 11:42:51;;;;;;;9.48;5.10;;;;;;;17.27;53.03;102921.66;4937355;29;20036;-60
2021/12/15 11:45:18;;;;;;;10.30;5.43;;;;;;;17.27;52.14;102920.78;4937507;29;20040;-59
2021/12/15 11:47:43;;;;;;;13.55;5.75;;;;;;;17.27;52.35;102926.22;4920311;29;20028;-60
2021/12/15 11:50:13;;;;;;;9.65;4.95;;;;;;;17.30;52.33;102920.56;4937219;29;20031;-59
2021/12/15 11:52:45;;;;;;;11.07;6.07;;;;;;;17.29;52.15;102913.41;4937350;29;20020;-59
2021/12/15 11:55:33;;;;;;;12.30;5.93;;;;;;;17.33;52.25;102925.72;4937172;29;20082;-59
2021/12/15 11:57:59;;;;;;;11.38;5.85;;;;;;;17.32;52.33;102924.00;4937433;29;20488;-60
2021/12/15 12:00:28;;;;;;;13.73;6.45;;;;;;;17.33;52.95;102921.19;4937375;29;20037;-59
2021/12/15 12:02:56;;;;;;;10.43;6.72;;;;;;;17.39;53.03;102925.25;4920468;29;20445;-60
2021/12/15 12:05:28;;;;;;;10.25;5.97;;;;;;;17.41;53.12;102921.44;4937419;29;20035;-60
2021/12/15 12:07:58;;;;;;;10.90;6.55;;;;;;;17.42;52.65;102919.56;4920224;29;20030;-59
2021/12/15 12:10:43;;;;;;;13.38;6.95;;;;;;;17.46;52.07;102915.63;4937320;29;20032;-60
2021/12/15 12:13:14;;;;;;;10.90;5.80;;;;;;;17.47;52.00;102920.09;4921238;29;20110;-59
2021/12/15 12:15:44;;;;;;;11.48;6.07;;;;;;;17.49;51.48;102915.38;4936982;29;20477;-60
2021/12/15 12:18:13;;;;;;;11.60;6.32;;;;;;;17.49;52.84;102920.81;4936626;29;20031;-59
2021/12/15 12:20:45;;;;;;;17.05;6.53;;;;;;;17.49;52.55;102920.81;4936871;29;20433;-59
2021/12/15 12:23:13;;;;;;;14.23;6.35;;;;;;;17.52;53.22;102917.84;4936577;29;20043;-59
2021/12/15 12:25:47;;;;;;;12.50;6.43;;;;;;;17.54;52.30;102917.75;4936926;29;20028;-60
2021/12/15 12:28:25;;;;;;;16.55;6.95;;;;;;;17.56;53.13;102918.53;4923813;29;20027;-59
2021/12/15 12:30:54;;;;;;;13.93;6.32;;;;;;;17.57;52.94;102912.97;4940744;29;20122;-60
2021/12/15 12:33:22;;;;;;;15.02;6.55;;;;;;;17.60;51.76;102917.25;4940776;29;20049;-59
2021/12/15 12:35:55;;;;;;;13.13;7.40;;;;;;;17.63;51.97;102917.03;4940821;29;20087;-60
2021/12/15 12:38:26;;;;;;;14.82;7.28;;;;;;;17.70;51.59;102913.69;4923528;29;20148;-60
2021/12/15 12:41:15;;;;;;;12.15;7.25;;;;;;;17.71;51.65;102910.00;4940285;29;20038;-60